Ruthville, North Dakota
Current Conditions -  °F | °C
As of 9:54 PM on Monday 22 Dec 2014 (Local Time) from KMOT Reporting Station
Haze Haze  
Wind Chill: 19°   Ceiling: 200
Heat Index: 30°   Visibility: 4mi
Dew Point: 28°   Wind: 16mph
Humidity: 92%   Direction: 340°NNW
Pressure: 29.81"   Gusts: NA
Location:  48.1414°N, 101.387°W
Report Text: KMOT 230354Z AUTO 34014KT 4SM BR OVC002 M01/M02 A2981 RMK AO2 SLP116 I1001 T10111022
Loading
Personal Weather Stations






























Interactive Weather Map New forecast layout! Learn more

10-Day Weather Forecast

Advertisements
Track Severe Weather on mobile